Portada
METAR-TAF:

METAR-TAF

Aeroports :

Tamworth, Austràlia

latitud: 31-05S, longitud: 150-50E, altitud: 410 m

Observació

L'informe es va fer fa 22 minuts, a les 10:30 UTC
Vent calma
Temperatura 5°C
Humitat 38%
Pressió 1017 hPa
Visibilitat 10 km o més

METAR: YSTW 161030Z AUTO 00000KT 9999 // NCD 05/M08 Q1017 RF00.0/000.0

Hora: 20:52 (10:52 UTC)

Pronòstic

L'informe es va fer fa 6 hores i 28 minuts, a les 04:24 UTC
Pronòstic vàlid del 16 a les 06 UTC al 16 a les 24 UTC
Vent 10 kt del Oest/Nord-Oest
Visibilitat 10 km o més
sense núvols per sota de 1500 mi sense presència de cumulonimbus.
Evolucionant progressivament
l' 16 a les 10 UTC al 16 a les 12 UTC
Vent 5 kt del Sud-Est
Visibilitat 10 km o més
sense núvols per sota de 1500 mi sense presència de cumulonimbus.

TAF: YSTW 160424Z 1606/1624 29010KT CAVOK BECMG 1610/1612 14005KT CAVOK

Observacions i pronòstics meteorològics de més de 4000 aeroports (METAR i TAF).

Les estacions disponibles són els punts grocs i vermells al mapa.

Posi el ratolí al punt desitjat per veure el nom de l'estació.

Feu clic per veure les observacions i els pronòstics meteorològics.

Per canviar el mapa: feu clic els botons verds amb una creu de color negre per apropar; al botó verd amb un guió per allunyar la imatge; o en les fletxes verdes per a mapes adjacents.


METAR-TAF: